sensor_id;sensor_type;location;lat;lon;timestamp;P1;durP1;ratioP1;P2;durP2;ratioP2
49460;SDS011;35355;49.198;-0.368;2022-12-07T00:00:27;47.13;;;15.98;;
49460;SDS011;35355;49.198;-0.368;2022-12-07T00:02:52;37.63;;;15.65;;
49460;SDS011;35355;49.198;-0.368;2022-12-07T00:05:17;41.15;;;15.70;;
49460;SDS011;35355;49.198;-0.368;2022-12-07T00:07:43;38.47;;;14.75;;
49460;SDS011;35355;49.198;-0.368;2022-12-07T00:10:08;36.47;;;14.77;;
49460;SDS011;35355;49.198;-0.368;2022-12-07T00:12:33;34.22;;;13.70;;
49460;SDS011;35355;49.198;-0.368;2022-12-07T00:14:59;31.60;;;12.75;;
49460;SDS011;35355;49.198;-0.368;2022-12-07T00:17:24;31.95;;;12.95;;
49460;SDS011;35355;49.198;-0.368;2022-12-07T00:19:49;36.88;;;13.88;;
49460;SDS011;35355;49.198;-0.368;2022-12-07T00:22:15;30.35;;;13.02;;
49460;SDS011;35355;49.198;-0.368;2022-12-07T00:24:41;36.33;;;15.18;;
49460;SDS011;35355;49.198;-0.368;2022-12-07T00:27:06;31.42;;;12.93;;
49460;SDS011;35355;49.198;-0.368;2022-12-07T00:29:31;30.25;;;13.38;;
49460;SDS011;35355;49.198;-0.368;2022-12-07T00:31:57;34.00;;;13.38;;
49460;SDS011;35355;49.198;-0.368;2022-12-07T00:34:22;34.58;;;14.75;;
49460;SDS011;35355;49.198;-0.368;2022-12-07T00:36:48;38.80;;;13.65;;
49460;SDS011;35355;49.198;-0.368;2022-12-07T00:39:14;30.63;;;13.73;;
49460;SDS011;35355;49.198;-0.368;2022-12-07T00:41:40;35.03;;;15.07;;
49460;SDS011;35355;49.198;-0.368;2022-12-07T00:44:05;34.70;;;15.15;;
49460;SDS011;35355;49.198;-0.368;2022-12-07T00:46:31;30.05;;;13.85;;
49460;SDS011;35355;49.198;-0.368;2022-12-07T00:48:56;40.10;;;15.80;;
49460;SDS011;35355;49.198;-0.368;2022-12-07T00:51:23;40.13;;;15.73;;
49460;SDS011;35355;49.198;-0.368;2022-12-07T00:53:49;38.40;;;15.23;;
49460;SDS011;35355;49.198;-0.368;2022-12-07T00:58:49;39.70;;;15.43;;
49460;SDS011;35355;49.198;-0.368;2022-12-07T01:01:18;40.13;;;15.30;;
49460;SDS011;35355;49.198;-0.368;2022-12-07T01:03:43;42.53;;;16.83;;
49460;SDS011;35355;49.198;-0.368;2022-12-07T01:06:09;38.55;;;14.73;;
49460;SDS011;35355;49.198;-0.368;2022-12-07T01:08:42;37.77;;;15.63;;
49460;SDS011;35355;49.198;-0.368;2022-12-07T01:11:08;35.67;;;14.43;;
49460;SDS011;35355;49.198;-0.368;2022-12-07T01:13:36;36.83;;;15.80;;
49460;SDS011;35355;49.198;-0.368;2022-12-07T01:16:03;39.42;;;16.98;;
49460;SDS011;35355;49.198;-0.368;2022-12-07T01:18:30;38.90;;;16.05;;
49460;SDS011;35355;49.198;-0.368;2022-12-07T01:21:05;37.03;;;14.55;;
49460;SDS011;35355;49.198;-0.368;2022-12-07T01:23:33;34.60;;;13.63;;
49460;SDS011;35355;49.198;-0.368;2022-12-07T01:26:00;36.97;;;14.77;;
49460;SDS011;35355;49.198;-0.368;2022-12-07T01:28:27;32.83;;;14.10;;
49460;SDS011;35355;49.198;-0.368;2022-12-07T01:30:57;36.20;;;14.48;;
49460;SDS011;35355;49.198;-0.368;2022-12-07T01:33:31;39.63;;;14.32;;
49460;SDS011;35355;49.198;-0.368;2022-12-07T01:36:17;34.97;;;14.13;;
49460;SDS011;35355;49.198;-0.368;2022-12-07T01:38:45;30.45;;;11.88;;
49460;SDS011;35355;49.198;-0.368;2022-12-07T01:41:12;37.90;;;15.63;;
49460;SDS011;35355;49.198;-0.368;2022-12-07T01:44:05;27.85;;;12.60;;
49460;SDS011;35355;49.198;-0.368;2022-12-07T01:46:59;26.67;;;11.85;;
49460;SDS011;35355;49.198;-0.368;2022-12-07T01:49:45;34.38;;;14.20;;
49460;SDS011;35355;49.198;-0.368;2022-12-07T01:54:47;33.05;;;12.77;;
49460;SDS011;35355;49.198;-0.368;2022-12-07T01:57:18;29.35;;;12.50;;
49460;SDS011;35355;49.198;-0.368;2022-12-07T01:59:44;28.17;;;12.52;;
49460;SDS011;35355;49.198;-0.368;2022-12-07T02:02:15;28.90;;;12.63;;
49460;SDS011;35355;49.198;-0.368;2022-12-07T02:04:45;27.23;;;11.93;;
49460;SDS011;35355;49.198;-0.368;2022-12-07T02:07:10;29.92;;;13.82;;
49460;SDS011;35355;49.198;-0.368;2022-12-07T02:09:36;31.10;;;12.60;;
49460;SDS011;35355;49.198;-0.368;2022-12-07T02:12:02;32.80;;;13.85;;
49460;SDS011;35355;49.198;-0.368;2022-12-07T02:14:28;31.80;;;12.82;;
49460;SDS011;35355;49.198;-0.368;2022-12-07T02:17:38;29.83;;;13.10;;
49460;SDS011;35355;49.198;-0.368;2022-12-07T02:31:01;28.23;;;12.50;;
49460;SDS011;35355;49.198;-0.368;2022-12-07T02:33:36;37.50;;;14.10;;
49460;SDS011;35355;49.198;-0.368;2022-12-07T02:36:08;29.27;;;13.65;;
49460;SDS011;35355;49.198;-0.368;2022-12-07T02:38:45;32.72;;;13.43;;
49460;SDS011;35355;49.198;-0.368;2022-12-07T02:43:57;29.73;;;12.15;;
49460;SDS011;35355;49.198;-0.368;2022-12-07T02:46:28;37.28;;;14.38;;
49460;SDS011;35355;49.198;-0.368;2022-12-07T02:48:57;31.83;;;14.00;;
49460;SDS011;35355;49.198;-0.368;2022-12-07T02:51:29;31.58;;;13.40;;
49460;SDS011;35355;49.198;-0.368;2022-12-07T02:53:58;31.83;;;14.07;;
49460;SDS011;35355;49.198;-0.368;2022-12-07T02:56:30;33.08;;;13.60;;
49460;SDS011;35355;49.198;-0.368;2022-12-07T03:10:14;31.58;;;13.05;;
49460;SDS011;35355;49.198;-0.368;2022-12-07T03:13:05;36.35;;;13.90;;
49460;SDS011;35355;49.198;-0.368;2022-12-07T03:15:46;31.77;;;13.45;;
49460;SDS011;35355;49.198;-0.368;2022-12-07T03:18:18;29.58;;;12.50;;
49460;SDS011;35355;49.198;-0.368;2022-12-07T03:20:48;26.17;;;12.10;;
49460;SDS011;35355;49.198;-0.368;2022-12-07T03:23:16;34.05;;;15.10;;
49460;SDS011;35355;49.198;-0.368;2022-12-07T03:25:45;35.40;;;13.55;;
49460;SDS011;35355;49.198;-0.368;2022-12-07T03:28:15;28.55;;;12.80;;
49460;SDS011;35355;49.198;-0.368;2022-12-07T03:33:26;38.10;;;14.60;;
49460;SDS011;35355;49.198;-0.368;2022-12-07T03:36:04;32.58;;;13.93;;
49460;SDS011;35355;49.198;-0.368;2022-12-07T03:38:45;30.45;;;12.63;;
49460;SDS011;35355;49.198;-0.368;2022-12-07T03:41:22;30.88;;;12.45;;
49460;SDS011;35355;49.198;-0.368;2022-12-07T03:43:51;34.92;;;14.07;;
49460;SDS011;35355;49.198;-0.368;2022-12-07T03:46:39;30.25;;;12.38;;
49460;SDS011;35355;49.198;-0.368;2022-12-07T03:51:40;40.00;;;14.32;;
49460;SDS011;35355;49.198;-0.368;2022-12-07T03:54:22;30.60;;;13.13;;
49460;SDS011;35355;49.198;-0.368;2022-12-07T03:56:52;37.35;;;14.88;;
49460;SDS011;35355;49.198;-0.368;2022-12-07T03:59:19;31.10;;;13.57;;
49460;SDS011;35355;49.198;-0.368;2022-12-07T04:01:47;37.22;;;13.88;;
49460;SDS011;35355;49.198;-0.368;2022-12-07T04:04:18;34.90;;;14.93;;
49460;SDS011;35355;49.198;-0.368;2022-12-07T04:06:43;36.72;;;14.00;;
49460;SDS011;35355;49.198;-0.368;2022-12-07T04:09:09;33.83;;;14.10;;
49460;SDS011;35355;49.198;-0.368;2022-12-07T04:11:34;34.33;;;14.48;;
49460;SDS011;35355;49.198;-0.368;2022-12-07T04:13:59;33.45;;;14.38;;
49460;SDS011;35355;49.198;-0.368;2022-12-07T04:16:47;36.35;;;13.73;;
49460;SDS011;35355;49.198;-0.368;2022-12-07T04:19:13;35.83;;;14.82;;
49460;SDS011;35355;49.198;-0.368;2022-12-07T04:21:40;37.05;;;15.70;;
49460;SDS011;35355;49.198;-0.368;2022-12-07T04:24:05;33.75;;;13.98;;
49460;SDS011;35355;49.198;-0.368;2022-12-07T04:26:31;32.08;;;13.77;;
49460;SDS011;35355;49.198;-0.368;2022-12-07T04:28:56;38.88;;;14.80;;
49460;SDS011;35355;49.198;-0.368;2022-12-07T04:31:22;34.63;;;14.57;;
49460;SDS011;35355;49.198;-0.368;2022-12-07T04:33:47;31.00;;;13.48;;
49460;SDS011;35355;49.198;-0.368;2022-12-07T04:36:12;33.50;;;14.45;;
49460;SDS011;35355;49.198;-0.368;2022-12-07T04:38:38;30.48;;;13.45;;
49460;SDS011;35355;49.198;-0.368;2022-12-07T04:41:04;29.90;;;12.88;;
49460;SDS011;35355;49.198;-0.368;2022-12-07T04:43:33;30.73;;;13.02;;
49460;SDS011;35355;49.198;-0.368;2022-12-07T04:45:58;30.40;;;12.55;;
49460;SDS011;35355;49.198;-0.368;2022-12-07T04:48:24;29.40;;;12.43;;
49460;SDS011;35355;49.198;-0.368;2022-12-07T04:50:49;28.40;;;13.90;;
49460;SDS011;35355;49.198;-0.368;2022-12-07T04:53:14;30.17;;;13.00;;
49460;SDS011;35355;49.198;-0.368;2022-12-07T04:55:40;35.20;;;13.27;;
49460;SDS011;35355;49.198;-0.368;2022-12-07T04:58:06;32.78;;;12.32;;
49460;SDS011;35355;49.198;-0.368;2022-12-07T05:00:31;28.90;;;12.95;;
49460;SDS011;35355;49.198;-0.368;2022-12-07T05:02:56;27.33;;;12.20;;
49460;SDS011;35355;49.198;-0.368;2022-12-07T05:05:22;28.90;;;12.32;;
49460;SDS011;35355;49.198;-0.368;2022-12-07T05:07:47;27.85;;;11.75;;
49460;SDS011;35355;49.198;-0.368;2022-12-07T05:10:12;27.88;;;12.20;;
49460;SDS011;35355;49.198;-0.368;2022-12-07T05:12:38;28.73;;;12.38;;
49460;SDS011;35355;49.198;-0.368;2022-12-07T05:15:04;31.80;;;13.75;;
49460;SDS011;35355;49.198;-0.368;2022-12-07T05:17:29;27.20;;;12.50;;
49460;SDS011;35355;49.198;-0.368;2022-12-07T05:19:55;28.73;;;13.13;;
49460;SDS011;35355;49.198;-0.368;2022-12-07T05:42:14;33.83;;;12.63;;
49460;SDS011;35355;49.198;-0.368;2022-12-07T05:44:40;26.42;;;10.55;;
49460;SDS011;35355;49.198;-0.368;2022-12-07T05:47:08;31.17;;;12.15;;
49460;SDS011;35355;49.198;-0.368;2022-12-07T05:49:33;28.85;;;11.95;;
49460;SDS011;35355;49.198;-0.368;2022-12-07T05:51:59;28.08;;;12.18;;
49460;SDS011;35355;49.198;-0.368;2022-12-07T05:54:24;33.80;;;12.63;;
49460;SDS011;35355;49.198;-0.368;2022-12-07T05:56:49;35.60;;;13.27;;
49460;SDS011;35355;49.198;-0.368;2022-12-07T05:59:15;31.17;;;11.85;;
49460;SDS011;35355;49.198;-0.368;2022-12-07T06:04:21;29.08;;;12.52;;
49460;SDS011;35355;49.198;-0.368;2022-12-07T06:06:47;34.05;;;13.13;;
49460;SDS011;35355;49.198;-0.368;2022-12-07T06:09:13;29.92;;;12.48;;
49460;SDS011;35355;49.198;-0.368;2022-12-07T06:11:39;31.58;;;12.15;;
49460;SDS011;35355;49.198;-0.368;2022-12-07T06:14:24;30.90;;;11.82;;
49460;SDS011;35355;49.198;-0.368;2022-12-07T06:16:49;36.05;;;12.40;;
49460;SDS011;35355;49.198;-0.368;2022-12-07T06:19:15;31.00;;;12.90;;
49460;SDS011;35355;49.198;-0.368;2022-12-07T06:21:41;28.95;;;11.98;;
49460;SDS011;35355;49.198;-0.368;2022-12-07T06:24:06;27.40;;;11.85;;
49460;SDS011;35355;49.198;-0.368;2022-12-07T06:26:32;29.55;;;12.65;;
49460;SDS011;35355;49.198;-0.368;2022-12-07T06:28:57;28.30;;;12.85;;
49460;SDS011;35355;49.198;-0.368;2022-12-07T06:31:23;29.10;;;12.73;;
49460;SDS011;35355;49.198;-0.368;2022-12-07T06:33:48;30.35;;;13.38;;
49460;SDS011;35355;49.198;-0.368;2022-12-07T06:36:14;33.42;;;15.23;;
49460;SDS011;35355;49.198;-0.368;2022-12-07T06:38:39;33.47;;;13.55;;
49460;SDS011;35355;49.198;-0.368;2022-12-07T06:41:05;29.80;;;13.15;;
49460;SDS011;35355;49.198;-0.368;2022-12-07T06:43:31;30.92;;;12.65;;
49460;SDS011;35355;49.198;-0.368;2022-12-07T06:45:57;37.80;;;14.75;;
49460;SDS011;35355;49.198;-0.368;2022-12-07T06:48:23;30.50;;;13.10;;
49460;SDS011;35355;49.198;-0.368;2022-12-07T06:50:48;31.88;;;12.93;;
49460;SDS011;35355;49.198;-0.368;2022-12-07T06:53:14;31.25;;;12.50;;
49460;SDS011;35355;49.198;-0.368;2022-12-07T06:55:39;34.08;;;12.93;;
49460;SDS011;35355;49.198;-0.368;2022-12-07T06:58:05;27.38;;;12.27;;
49460;SDS011;35355;49.198;-0.368;2022-12-07T07:00:30;39.05;;;14.75;;
49460;SDS011;35355;49.198;-0.368;2022-12-07T07:02:55;32.63;;;12.23;;
49460;SDS011;35355;49.198;-0.368;2022-12-07T07:05:21;31.15;;;12.63;;
49460;SDS011;35355;49.198;-0.368;2022-12-07T07:07:47;37.03;;;13.98;;
49460;SDS011;35355;49.198;-0.368;2022-12-07T07:10:13;34.38;;;14.27;;
49460;SDS011;35355;49.198;-0.368;2022-12-07T07:12:39;36.97;;;14.38;;
49460;SDS011;35355;49.198;-0.368;2022-12-07T07:15:04;31.25;;;13.43;;
49460;SDS011;35355;49.198;-0.368;2022-12-07T07:17:30;31.95;;;13.50;;
49460;SDS011;35355;49.198;-0.368;2022-12-07T07:19:55;34.58;;;14.52;;
49460;SDS011;35355;49.198;-0.368;2022-12-07T07:22:21;36.38;;;13.60;;
49460;SDS011;35355;49.198;-0.368;2022-12-07T07:24:46;34.67;;;14.25;;
49460;SDS011;35355;49.198;-0.368;2022-12-07T07:27:11;32.03;;;13.35;;
49460;SDS011;35355;49.198;-0.368;2022-12-07T07:29:37;33.88;;;13.43;;
49460;SDS011;35355;49.198;-0.368;2022-12-07T07:32:02;36.13;;;14.68;;
49460;SDS011;35355;49.198;-0.368;2022-12-07T07:34:27;32.88;;;12.75;;
49460;SDS011;35355;49.198;-0.368;2022-12-07T07:36:53;36.40;;;14.13;;
49460;SDS011;35355;49.198;-0.368;2022-12-07T07:39:18;32.92;;;13.70;;
49460;SDS011;35355;49.198;-0.368;2022-12-07T07:41:43;31.67;;;12.25;;
49460;SDS011;35355;49.198;-0.368;2022-12-07T07:44:09;30.73;;;12.55;;
49460;SDS011;35355;49.198;-0.368;2022-12-07T07:46:35;36.67;;;14.90;;
49460;SDS011;35355;49.198;-0.368;2022-12-07T07:49:00;32.22;;;13.57;;
49460;SDS011;35355;49.198;-0.368;2022-12-07T07:51:26;28.92;;;13.32;;
49460;SDS011;35355;49.198;-0.368;2022-12-07T07:53:51;32.13;;;13.55;;
49460;SDS011;35355;49.198;-0.368;2022-12-07T07:56:19;34.00;;;13.88;;
49460;SDS011;35355;49.198;-0.368;2022-12-07T07:58:44;31.67;;;13.88;;
49460;SDS011;35355;49.198;-0.368;2022-12-07T08:01:09;30.17;;;12.95;;
49460;SDS011;35355;49.198;-0.368;2022-12-07T08:03:35;32.17;;;14.10;;
49460;SDS011;35355;49.198;-0.368;2022-12-07T08:06:04;32.58;;;13.30;;
49460;SDS011;35355;49.198;-0.368;2022-12-07T08:08:29;34.20;;;14.23;;
49460;SDS011;35355;49.198;-0.368;2022-12-07T08:10:55;37.85;;;15.00;;
49460;SDS011;35355;49.198;-0.368;2022-12-07T08:13:21;39.63;;;14.93;;
49460;SDS011;35355;49.198;-0.368;2022-12-07T08:15:46;36.08;;;15.52;;
49460;SDS011;35355;49.198;-0.368;2022-12-07T08:18:13;46.38;;;15.00;;
49460;SDS011;35355;49.198;-0.368;2022-12-07T08:20:41;44.97;;;16.45;;
49460;SDS011;35355;49.198;-0.368;2022-12-07T08:23:07;56.92;;;20.00;;
49460;SDS011;35355;49.198;-0.368;2022-12-07T08:25:35;43.50;;;16.88;;
49460;SDS011;35355;49.198;-0.368;2022-12-07T08:28:00;49.90;;;16.30;;
49460;SDS011;35355;49.198;-0.368;2022-12-07T08:30:26;38.22;;;15.98;;
49460;SDS011;35355;49.198;-0.368;2022-12-07T08:32:53;39.55;;;15.07;;
49460;SDS011;35355;49.198;-0.368;2022-12-07T08:35:18;48.28;;;15.27;;
49460;SDS011;35355;49.198;-0.368;2022-12-07T08:37:44;43.83;;;15.85;;
49460;SDS011;35355;49.198;-0.368;2022-12-07T08:40:10;43.05;;;15.18;;
49460;SDS011;35355;49.198;-0.368;2022-12-07T08:42:40;34.75;;;14.82;;
49460;SDS011;35355;49.198;-0.368;2022-12-07T08:45:06;37.05;;;14.35;;
49460;SDS011;35355;49.198;-0.368;2022-12-07T08:47:34;42.72;;;16.00;;
49460;SDS011;35355;49.198;-0.368;2022-12-07T08:50:02;37.97;;;15.18;;
49460;SDS011;35355;49.198;-0.368;2022-12-07T08:52:30;42.33;;;14.05;;
49460;SDS011;35355;49.198;-0.368;2022-12-07T08:54:57;36.47;;;14.43;;
49460;SDS011;35355;49.198;-0.368;2022-12-07T08:57:24;32.92;;;14.40;;
49460;SDS011;35355;49.198;-0.368;2022-12-07T08:59:50;40.35;;;14.70;;
49460;SDS011;35355;49.198;-0.368;2022-12-07T09:02:18;41.28;;;14.73;;
49460;SDS011;35355;49.198;-0.368;2022-12-07T09:04:44;50.75;;;16.52;;
49460;SDS011;35355;49.198;-0.368;2022-12-07T09:07:09;39.42;;;14.20;;
49460;SDS011;35355;49.198;-0.368;2022-12-07T09:09:35;41.45;;;17.33;;
49460;SDS011;35355;49.198;-0.368;2022-12-07T09:12:00;42.35;;;15.02;;
49460;SDS011;35355;49.198;-0.368;2022-12-07T09:14:26;48.50;;;16.63;;
49460;SDS011;35355;49.198;-0.368;2022-12-07T09:16:51;40.60;;;16.83;;
49460;SDS011;35355;49.198;-0.368;2022-12-07T09:19:17;40.38;;;14.48;;
49460;SDS011;35355;49.198;-0.368;2022-12-07T09:21:42;39.10;;;14.80;;
49460;SDS011;35355;49.198;-0.368;2022-12-07T09:24:07;35.47;;;14.68;;
49460;SDS011;35355;49.198;-0.368;2022-12-07T09:26:34;45.85;;;15.02;;
49460;SDS011;35355;49.198;-0.368;2022-12-07T09:29:02;39.78;;;15.95;;
49460;SDS011;35355;49.198;-0.368;2022-12-07T09:31:28;39.22;;;15.32;;
49460;SDS011;35355;49.198;-0.368;2022-12-07T09:33:54;44.58;;;16.63;;
49460;SDS011;35355;49.198;-0.368;2022-12-07T09:36:21;39.05;;;16.48;;
49460;SDS011;35355;49.198;-0.368;2022-12-07T09:38:46;46.78;;;16.52;;
49460;SDS011;35355;49.198;-0.368;2022-12-07T09:41:11;41.72;;;15.98;;
49460;SDS011;35355;49.198;-0.368;2022-12-07T09:43:37;43.97;;;16.63;;
49460;SDS011;35355;49.198;-0.368;2022-12-07T09:46:07;41.40;;;16.20;;
49460;SDS011;35355;49.198;-0.368;2022-12-07T09:48:38;48.15;;;16.25;;
49460;SDS011;35355;49.198;-0.368;2022-12-07T09:51:14;40.47;;;16.17;;
49460;SDS011;35355;49.198;-0.368;2022-12-07T09:53:42;37.33;;;15.23;;
49460;SDS011;35355;49.198;-0.368;2022-12-07T09:56:11;38.08;;;14.57;;
49460;SDS011;35355;49.198;-0.368;2022-12-07T09:58:38;35.10;;;14.82;;
49460;SDS011;35355;49.198;-0.368;2022-12-07T10:03:32;33.10;;;14.27;;
49460;SDS011;35355;49.198;-0.368;2022-12-07T10:05:59;38.63;;;14.27;;
49460;SDS011;35355;49.198;-0.368;2022-12-07T10:08:25;40.88;;;13.45;;
49460;SDS011;35355;49.198;-0.368;2022-12-07T10:10:52;41.10;;;14.52;;
49460;SDS011;35355;49.198;-0.368;2022-12-07T10:13:19;32.22;;;13.60;;
49460;SDS011;35355;49.198;-0.368;2022-12-07T10:15:51;40.00;;;13.55;;
49460;SDS011;35355;49.198;-0.368;2022-12-07T10:20:45;44.50;;;16.08;;
49460;SDS011;35355;49.198;-0.368;2022-12-07T10:23:16;38.83;;;16.50;;
49460;SDS011;35355;49.198;-0.368;2022-12-07T10:25:43;57.38;;;21.13;;
49460;SDS011;35355;49.198;-0.368;2022-12-07T10:28:16;48.47;;;18.30;;
49460;SDS011;35355;49.198;-0.368;2022-12-07T10:38:23;38.80;;;15.13;;
49460;SDS011;35355;49.198;-0.368;2022-12-07T10:41:02;41.70;;;15.95;;
49460;SDS011;35355;49.198;-0.368;2022-12-07T10:43:31;41.33;;;16.92;;
49460;SDS011;35355;49.198;-0.368;2022-12-07T10:46:10;43.35;;;16.52;;
49460;SDS011;35355;49.198;-0.368;2022-12-07T11:08:13;44.95;;;16.00;;
49460;SDS011;35355;49.198;-0.368;2022-12-07T11:10:57;39.00;;;16.92;;
49460;SDS011;35355;49.198;-0.368;2022-12-07T11:23:48;33.95;;;15.65;;
49460;SDS011;35355;49.198;-0.368;2022-12-07T11:34:33;36.08;;;15.30;;
49460;SDS011;35355;49.198;-0.368;2022-12-07T11:37:01;40.03;;;15.38;;
49460;SDS011;35355;49.198;-0.368;2022-12-07T11:39:37;34.28;;;14.77;;
49460;SDS011;35355;49.198;-0.368;2022-12-07T11:42:27;32.15;;;16.08;;
49460;SDS011;35355;49.198;-0.368;2022-12-07T11:45:00;42.50;;;19.17;;
49460;SDS011;35355;49.198;-0.368;2022-12-07T11:52:48;29.92;;;15.30;;
49460;SDS011;35355;49.198;-0.368;2022-12-07T11:55:30;28.55;;;13.82;;
49460;SDS011;35355;49.198;-0.368;2022-12-07T11:58:12;29.30;;;14.57;;
49460;SDS011;35355;49.198;-0.368;2022-12-07T12:00:47;30.58;;;14.32;;
49460;SDS011;35355;49.198;-0.368;2022-12-07T12:03:20;28.10;;;13.57;;
49460;SDS011;35355;49.198;-0.368;2022-12-07T12:05:55;29.60;;;13.70;;
49460;SDS011;35355;49.198;-0.368;2022-12-07T12:08:23;33.50;;;15.18;;
49460;SDS011;35355;49.198;-0.368;2022-12-07T12:19:46;32.55;;;14.57;;
49460;SDS011;35355;49.198;-0.368;2022-12-07T12:22:47;31.42;;;14.05;;
49460;SDS011;35355;49.198;-0.368;2022-12-07T12:25:20;31.80;;;14.00;;
49460;SDS011;35355;49.198;-0.368;2022-12-07T12:28:01;24.40;;;13.05;;
49460;SDS011;35355;49.198;-0.368;2022-12-07T12:30:36;30.60;;;14.02;;
49460;SDS011;35355;49.198;-0.368;2022-12-07T12:33:05;29.65;;;14.02;;
49460;SDS011;35355;49.198;-0.368;2022-12-07T12:35:39;26.80;;;12.70;;
49460;SDS011;35355;49.198;-0.368;2022-12-07T12:41:01;29.00;;;14.48;;
49460;SDS011;35355;49.198;-0.368;2022-12-07T12:43:39;31.23;;;14.07;;
49460;SDS011;35355;49.198;-0.368;2022-12-07T12:51:42;27.67;;;13.25;;
49460;SDS011;35355;49.198;-0.368;2022-12-07T12:54:19;26.15;;;13.40;;
49460;SDS011;35355;49.198;-0.368;2022-12-07T12:56:55;28.20;;;13.10;;
49460;SDS011;35355;49.198;-0.368;2022-12-07T12:59:33;30.73;;;13.48;;
49460;SDS011;35355;49.198;-0.368;2022-12-07T13:04:59;27.90;;;13.95;;
49460;SDS011;35355;49.198;-0.368;2022-12-07T13:15:36;26.52;;;12.55;;
49460;SDS011;35355;49.198;-0.368;2022-12-07T13:20:56;26.27;;;12.73;;
49460;SDS011;35355;49.198;-0.368;2022-12-07T13:23:31;26.73;;;13.93;;
49460;SDS011;35355;49.198;-0.368;2022-12-07T13:28:50;24.25;;;12.60;;
49460;SDS011;35355;49.198;-0.368;2022-12-07T13:33:51;20.05;;;10.40;;
49460;SDS011;35355;49.198;-0.368;2022-12-07T13:36:19;20.35;;;11.23;;
49460;SDS011;35355;49.198;-0.368;2022-12-07T13:38:50;20.05;;;9.80;;
49460;SDS011;35355;49.198;-0.368;2022-12-07T13:41:20;18.02;;;8.20;;
49460;SDS011;35355;49.198;-0.368;2022-12-07T13:44:00;15.40;;;7.10;;
49460;SDS011;35355;49.198;-0.368;2022-12-07T13:49:29;15.18;;;7.00;;
49460;SDS011;35355;49.198;-0.368;2022-12-07T14:11:38;18.98;;;8.20;;
49460;SDS011;35355;49.198;-0.368;2022-12-07T14:14:04;17.83;;;7.45;;
49460;SDS011;35355;49.198;-0.368;2022-12-07T14:16:31;19.08;;;8.30;;
49460;SDS011;35355;49.198;-0.368;2022-12-07T14:19:00;17.33;;;7.95;;
49460;SDS011;35355;49.198;-0.368;2022-12-07T14:21:30;13.82;;;7.38;;
49460;SDS011;35355;49.198;-0.368;2022-12-07T14:24:16;15.80;;;7.88;;
49460;SDS011;35355;49.198;-0.368;2022-12-07T14:26:43;18.13;;;8.15;;
49460;SDS011;35355;49.198;-0.368;2022-12-07T14:31:53;12.75;;;6.07;;
49460;SDS011;35355;49.198;-0.368;2022-12-07T14:34:19;14.65;;;6.53;;
49460;SDS011;35355;49.198;-0.368;2022-12-07T14:36:46;13.88;;;6.78;;
49460;SDS011;35355;49.198;-0.368;2022-12-07T14:39:11;15.40;;;6.53;;
49460;SDS011;35355;49.198;-0.368;2022-12-07T14:41:37;16.60;;;7.35;;
49460;SDS011;35355;49.198;-0.368;2022-12-07T14:44:21;11.73;;;6.60;;
49460;SDS011;35355;49.198;-0.368;2022-12-07T14:46:48;13.65;;;7.15;;
49460;SDS011;35355;49.198;-0.368;2022-12-07T14:49:16;12.27;;;6.28;;
49460;SDS011;35355;49.198;-0.368;2022-12-07T14:51:42;13.07;;;5.78;;
49460;SDS011;35355;49.198;-0.368;2022-12-07T14:54:14;13.93;;;6.22;;
49460;SDS011;35355;49.198;-0.368;2022-12-07T14:56:44;15.73;;;7.18;;
49460;SDS011;35355;49.198;-0.368;2022-12-07T14:59:13;22.42;;;7.30;;
49460;SDS011;35355;49.198;-0.368;2022-12-07T15:01:39;13.52;;;6.82;;
49460;SDS011;35355;49.198;-0.368;2022-12-07T15:04:04;17.23;;;7.93;;
49460;SDS011;35355;49.198;-0.368;2022-12-07T15:06:30;12.85;;;6.88;;
49460;SDS011;35355;49.198;-0.368;2022-12-07T15:08:55;15.65;;;7.88;;
49460;SDS011;35355;49.198;-0.368;2022-12-07T15:11:21;18.52;;;8.55;;
49460;SDS011;35355;49.198;-0.368;2022-12-07T15:13:46;16.50;;;7.32;;
49460;SDS011;35355;49.198;-0.368;2022-12-07T15:16:30;13.95;;;7.40;;
49460;SDS011;35355;49.198;-0.368;2022-12-07T15:18:56;14.57;;;6.68;;
49460;SDS011;35355;49.198;-0.368;2022-12-07T15:21:21;20.10;;;8.10;;
49460;SDS011;35355;49.198;-0.368;2022-12-07T15:23:46;17.25;;;8.60;;
49460;SDS011;35355;49.198;-0.368;2022-12-07T15:26:12;21.15;;;9.25;;
49460;SDS011;35355;49.198;-0.368;2022-12-07T15:28:39;18.25;;;9.07;;
49460;SDS011;35355;49.198;-0.368;2022-12-07T15:31:10;20.25;;;8.57;;
49460;SDS011;35355;49.198;-0.368;2022-12-07T15:33:39;19.60;;;7.60;;
49460;SDS011;35355;49.198;-0.368;2022-12-07T15:36:05;14.20;;;7.38;;
49460;SDS011;35355;49.198;-0.368;2022-12-07T15:38:31;16.70;;;7.50;;
49460;SDS011;35355;49.198;-0.368;2022-12-07T15:40:56;18.45;;;7.72;;
49460;SDS011;35355;49.198;-0.368;2022-12-07T15:43:22;16.63;;;7.70;;
49460;SDS011;35355;49.198;-0.368;2022-12-07T15:46:05;15.93;;;7.47;;
49460;SDS011;35355;49.198;-0.368;2022-12-07T15:48:31;13.13;;;7.57;;
49460;SDS011;35355;49.198;-0.368;2022-12-07T15:51:03;15.32;;;7.03;;
49460;SDS011;35355;49.198;-0.368;2022-12-07T15:53:33;18.05;;;6.60;;
49460;SDS011;35355;49.198;-0.368;2022-12-07T15:55:59;12.73;;;7.25;;
49460;SDS011;35355;49.198;-0.368;2022-12-07T15:58:25;14.88;;;6.90;;
49460;SDS011;35355;49.198;-0.368;2022-12-07T16:00:50;13.35;;;6.65;;
49460;SDS011;35355;49.198;-0.368;2022-12-07T16:03:16;14.52;;;6.97;;
49460;SDS011;35355;49.198;-0.368;2022-12-07T16:05:42;12.82;;;6.57;;
49460;SDS011;35355;49.198;-0.368;2022-12-07T16:08:13;16.55;;;7.00;;
49460;SDS011;35355;49.198;-0.368;2022-12-07T16:10:38;16.00;;;7.35;;
49460;SDS011;35355;49.198;-0.368;2022-12-07T16:13:03;15.65;;;7.78;;
49460;SDS011;35355;49.198;-0.368;2022-12-07T16:15:29;16.92;;;7.10;;
49460;SDS011;35355;49.198;-0.368;2022-12-07T16:17:54;18.23;;;7.55;;
49460;SDS011;35355;49.198;-0.368;2022-12-07T16:20:20;18.77;;;8.48;;
49460;SDS011;35355;49.198;-0.368;2022-12-07T16:22:45;17.33;;;8.55;;
49460;SDS011;35355;49.198;-0.368;2022-12-07T16:25:11;15.75;;;7.50;;
49460;SDS011;35355;49.198;-0.368;2022-12-07T16:27:36;19.65;;;8.05;;
49460;SDS011;35355;49.198;-0.368;2022-12-07T16:30:02;16.90;;;8.98;;
49460;SDS011;35355;49.198;-0.368;2022-12-07T16:32:28;20.13;;;8.25;;
49460;SDS011;35355;49.198;-0.368;2022-12-07T16:34:53;13.88;;;7.10;;
49460;SDS011;35355;49.198;-0.368;2022-12-07T16:37:18;14.55;;;8.20;;
49460;SDS011;35355;49.198;-0.368;2022-12-07T16:39:44;16.65;;;8.85;;
49460;SDS011;35355;49.198;-0.368;2022-12-07T16:42:09;17.20;;;8.50;;
49460;SDS011;35355;49.198;-0.368;2022-12-07T16:44:34;21.67;;;9.70;;
49460;SDS011;35355;49.198;-0.368;2022-12-07T16:47:00;19.17;;;10.02;;
49460;SDS011;35355;49.198;-0.368;2022-12-07T16:49:25;19.40;;;9.70;;
49460;SDS011;35355;49.198;-0.368;2022-12-07T16:51:51;19.85;;;9.27;;
49460;SDS011;35355;49.198;-0.368;2022-12-07T16:54:17;17.35;;;9.05;;
49460;SDS011;35355;49.198;-0.368;2022-12-07T16:56:42;18.88;;;9.38;;
49460;SDS011;35355;49.198;-0.368;2022-12-07T16:59:08;19.55;;;9.40;;
49460;SDS011;35355;49.198;-0.368;2022-12-07T17:01:33;23.70;;;12.50;;
49460;SDS011;35355;49.198;-0.368;2022-12-07T17:03:59;25.90;;;13.32;;
49460;SDS011;35355;49.198;-0.368;2022-12-07T17:06:26;32.28;;;15.32;;
49460;SDS011;35355;49.198;-0.368;2022-12-07T17:08:56;32.70;;;15.10;;
49460;SDS011;35355;49.198;-0.368;2022-12-07T17:11:23;27.20;;;12.70;;
49460;SDS011;35355;49.198;-0.368;2022-12-07T17:13:49;21.08;;;10.57;;